createdAt,value
2023-05-23T00:00:14.501Z,7.90
2023-05-23T00:02:45.192Z,7.87
2023-05-23T00:05:15.574Z,8.80
2023-05-23T00:07:43.961Z,6.57
2023-05-23T00:10:12.694Z,7.53
2023-05-23T00:12:42.640Z,7.30
2023-05-23T00:15:11.462Z,5.70
2023-05-23T00:17:39.923Z,6.10
2023-05-23T00:20:11.086Z,5.30
2023-05-23T00:22:43.060Z,4.80
2023-05-23T00:25:11.798Z,4.70
2023-05-23T00:27:40.370Z,5.40
2023-05-23T00:30:10.088Z,4.77
2023-05-23T00:32:38.817Z,4.10
2023-05-23T00:35:08.367Z,4.17
2023-05-23T00:37:36.821Z,3.80
2023-05-23T00:40:08.526Z,4.13
2023-05-23T00:42:36.881Z,3.33
2023-05-23T00:45:06.793Z,3.60
2023-05-23T00:47:35.429Z,3.87
2023-05-23T00:50:05.346Z,3.53
2023-05-23T00:52:33.938Z,3.40
2023-05-23T00:55:02.467Z,3.33
2023-05-23T00:57:34.512Z,3.93
2023-05-23T01:00:03.856Z,3.53
2023-05-23T01:02:36.719Z,4.00
2023-05-23T01:05:05.978Z,3.50
2023-05-23T01:07:34.504Z,3.70
2023-05-23T01:10:03.382Z,3.97
2023-05-23T01:12:40.990Z,3.87
2023-05-23T01:15:13.396Z,3.80
2023-05-23T01:17:56.233Z,3.00
2023-05-23T01:20:29.975Z,4.13
2023-05-23T01:23:24.559Z,4.07
2023-05-23T01:26:14.760Z,4.03
2023-05-23T01:28:48.293Z,4.67
2023-05-23T01:31:18.605Z,4.10
2023-05-23T01:33:50.147Z,3.67
2023-05-23T01:36:18.655Z,4.50
2023-05-23T01:38:47.517Z,4.27
2023-05-23T01:41:16.056Z,4.03
2023-05-23T01:43:45.996Z,3.50
2023-05-23T01:46:15.245Z,4.03
2023-05-23T01:48:44.279Z,4.57
2023-05-23T01:51:12.965Z,4.90
2023-05-23T01:53:41.930Z,4.90
2023-05-23T01:56:10.685Z,4.63
2023-05-23T01:58:39.367Z,4.70
2023-05-23T02:01:09.986Z,5.13
2023-05-23T02:03:38.776Z,5.13
2023-05-23T02:06:07.560Z,4.87
2023-05-23T02:08:36.413Z,5.93
2023-05-23T02:11:04.954Z,5.80
2023-05-23T02:13:33.334Z,5.93
2023-05-23T02:16:02.052Z,5.20
2023-05-23T02:18:32.029Z,5.97
2023-05-23T02:21:00.723Z,5.97
2023-05-23T02:23:29.322Z,6.90
2023-05-23T02:25:57.876Z,6.63
2023-05-23T02:28:26.371Z,5.53
2023-05-23T02:30:54.875Z,7.00
2023-05-23T02:33:23.590Z,7.10
2023-05-23T02:35:57.190Z,6.60
2023-05-23T02:38:26.941Z,6.73
2023-05-23T02:40:57.718Z,6.63
2023-05-23T02:43:26.263Z,6.07
2023-05-23T02:45:54.791Z,7.57
2023-05-23T02:48:23.571Z,6.40
2023-05-23T02:50:52.423Z,5.80
2023-05-23T02:53:22.928Z,6.33
2023-05-23T02:55:51.509Z,5.63
2023-05-23T02:58:22.831Z,6.10
2023-05-23T03:00:51.499Z,5.37
2023-05-23T03:03:19.980Z,6.33
2023-05-23T03:05:48.812Z,6.07
2023-05-23T03:08:17.451Z,6.40
2023-05-23T03:10:47.457Z,6.20
2023-05-23T03:13:16.209Z,5.37
2023-05-23T03:15:44.577Z,5.97
2023-05-23T03:18:13.178Z,5.03
2023-05-23T03:20:42.320Z,5.63
2023-05-23T03:23:10.829Z,4.97
2023-05-23T03:25:39.776Z,4.43
2023-05-23T03:28:09.754Z,6.30
2023-05-23T03:30:38.195Z,5.93
2023-05-23T03:33:07.006Z,5.30
2023-05-23T03:35:36.341Z,5.40
2023-05-23T03:38:05.365Z,5.00
2023-05-23T03:40:34.558Z,5.77
2023-05-23T03:43:04.981Z,6.27
2023-05-23T03:45:36.431Z,5.70
2023-05-23T03:48:09.517Z,6.23
2023-05-23T03:50:37.989Z,6.53
2023-05-23T03:53:08.495Z,5.03
2023-05-23T03:55:37.892Z,5.60
2023-05-23T03:58:06.493Z,6.63
2023-05-23T04:00:36.351Z,5.50
2023-05-23T04:03:08.790Z,5.83
2023-05-23T04:05:37.737Z,5.63
2023-05-23T04:08:06.896Z,5.83
2023-05-23T04:10:35.539Z,5.00
2023-05-23T04:13:03.993Z,6.30
2023-05-23T04:15:34.364Z,6.03
2023-05-23T04:18:10.721Z,6.20
2023-05-23T04:20:39.847Z,6.13
2023-05-23T04:23:08.700Z,5.70
2023-05-23T04:25:41.074Z,7.23
2023-05-23T04:28:18.307Z,5.40
2023-05-23T04:30:49.563Z,5.63
2023-05-23T04:33:23.653Z,6.37
2023-05-23T04:35:52.955Z,6.83
2023-05-23T04:38:23.056Z,6.27
2023-05-23T04:40:52.861Z,6.13
2023-05-23T04:43:42.831Z,6.17
2023-05-23T04:46:29.891Z,6.53
2023-05-23T04:49:13.298Z,6.10
2023-05-23T04:51:42.118Z,6.43
2023-05-23T04:54:17.488Z,6.67
2023-05-23T04:56:46.340Z,6.77
2023-05-23T04:59:16.565Z,6.37
2023-05-23T05:01:45.320Z,7.23
2023-05-23T05:04:16.253Z,7.13
2023-05-23T05:06:48.191Z,5.97
2023-05-23T05:09:17.761Z,7.07
2023-05-23T05:11:46.401Z,6.70
2023-05-23T05:14:16.362Z,7.43
2023-05-23T05:16:47.126Z,6.47
2023-05-23T05:19:18.755Z,7.80
2023-05-23T05:21:48.100Z,7.30
2023-05-23T05:24:16.901Z,7.43
2023-05-23T05:26:45.964Z,7.50
2023-05-23T05:29:14.552Z,7.53
2023-05-23T05:31:45.392Z,6.57
2023-05-23T05:34:14.313Z,7.60
2023-05-23T05:36:47.945Z,7.03
2023-05-23T05:39:18.504Z,7.63
2023-05-23T05:41:47.051Z,7.20
2023-05-23T05:44:16.490Z,8.30
2023-05-23T05:46:48.537Z,7.30
2023-05-23T05:49:17.317Z,7.00
2023-05-23T05:51:49.341Z,6.73
2023-05-23T05:54:19.205Z,6.90
2023-05-23T05:56:48.728Z,6.47
2023-05-23T05:59:18.170Z,6.63
2023-05-23T06:01:46.721Z,6.13
2023-05-23T06:04:15.355Z,5.97
2023-05-23T06:06:44.302Z,5.40
2023-05-23T06:09:14.402Z,6.23
2023-05-23T06:11:42.873Z,5.53
2023-05-23T06:14:11.645Z,6.60
2023-05-23T06:16:44.408Z,5.30
2023-05-23T06:19:13.417Z,6.80
2023-05-23T06:21:42.834Z,5.93
2023-05-23T06:24:14.331Z,5.90
2023-05-23T06:26:43.354Z,5.20
2023-05-23T06:29:11.941Z,6.13
2023-05-23T06:31:40.577Z,5.10
2023-05-23T06:34:09.214Z,4.53
2023-05-23T06:36:37.774Z,5.70
2023-05-23T06:39:06.335Z,5.87
2023-05-23T06:41:36.595Z,5.50
2023-05-23T06:44:05.135Z,4.57
2023-05-23T06:46:33.709Z,5.87
2023-05-23T06:49:14.409Z,5.03
2023-05-23T06:51:45.615Z,5.87
2023-05-23T06:54:14.380Z,6.23
2023-05-23T06:56:44.350Z,5.90
2023-05-23T06:59:13.024Z,5.80
2023-05-23T07:01:41.972Z,5.43
2023-05-23T07:04:12.218Z,5.03
2023-05-23T07:06:41.409Z,5.40
2023-05-23T07:09:11.965Z,6.43
2023-05-23T07:11:43.195Z,6.30
2023-05-23T07:14:12.477Z,6.37
2023-05-23T07:16:43.725Z,6.40
2023-05-23T07:19:13.753Z,6.60
2023-05-23T07:21:51.504Z,6.00
2023-05-23T07:24:22.336Z,6.17
2023-05-23T07:26:53.208Z,6.40
2023-05-23T07:29:21.803Z,6.30
2023-05-23T07:31:53.643Z,6.87
2023-05-23T07:34:24.090Z,7.20
2023-05-23T07:36:56.493Z,6.77
2023-05-23T07:39:28.120Z,6.30
2023-05-23T07:42:00.726Z,6.13
2023-05-23T07:44:30.362Z,5.83
2023-05-23T07:46:59.235Z,5.57
2023-05-23T07:49:27.775Z,5.40
2023-05-23T07:51:56.914Z,6.60
2023-05-23T07:54:25.981Z,6.10
2023-05-23T07:57:00.360Z,6.00
2023-05-23T07:59:30.217Z,6.40
2023-05-23T08:01:59.138Z,6.80
2023-05-23T08:04:28.679Z,7.20
2023-05-23T08:07:05.152Z,8.03
2023-05-23T08:09:54.754Z,6.73
2023-05-23T08:12:25.936Z,7.27
2023-05-23T08:15:03.903Z,6.20
2023-05-23T08:17:38.441Z,7.13
2023-05-23T08:20:09.901Z,6.33
2023-05-23T08:22:38.831Z,7.47
2023-05-23T08:25:08.488Z,8.00
2023-05-23T08:27:41.156Z,6.80
2023-05-23T08:30:25.609Z,6.17
2023-05-23T08:32:55.348Z,7.40
2023-05-23T08:35:24.385Z,6.37
2023-05-23T08:37:53.388Z,6.03
2023-05-23T08:40:23.248Z,6.00
2023-05-23T08:43:12.545Z,6.67
2023-05-23T08:45:42.613Z,6.47
2023-05-23T08:48:15.124Z,6.63
2023-05-23T08:50:48.843Z,7.50
2023-05-23T08:53:22.158Z,6.60
2023-05-23T08:55:59.195Z,6.50
2023-05-23T08:58:36.753Z,5.97
2023-05-23T09:01:06.229Z,7.00
2023-05-23T09:03:37.742Z,5.63
2023-05-23T09:06:27.127Z,5.60
2023-05-23T09:08:56.309Z,5.70
2023-05-23T09:11:26.610Z,6.47
2023-05-23T09:13:57.803Z,5.13
2023-05-23T09:16:34.558Z,5.00
2023-05-23T09:19:14.876Z,5.10
2023-05-23T09:21:50.744Z,5.60
2023-05-23T09:24:37.244Z,4.83
2023-05-23T09:27:09.464Z,5.23
2023-05-23T09:29:42.114Z,5.60
2023-05-23T09:32:14.837Z,4.73
2023-05-23T09:34:44.332Z,4.90
2023-05-23T09:37:19.680Z,4.50
2023-05-23T09:39:49.725Z,5.27
2023-05-23T09:42:22.091Z,5.17
2023-05-23T09:44:52.174Z,5.30
2023-05-23T09:47:20.821Z,4.60
2023-05-23T09:49:49.605Z,4.00
2023-05-23T09:52:20.215Z,5.00
2023-05-23T09:54:49.306Z,3.77
2023-05-23T09:57:18.283Z,4.20
2023-05-23T09:59:53.580Z,4.27
2023-05-23T10:02:45.918Z,4.60
2023-05-23T10:05:25.751Z,4.20
2023-05-23T10:07:54.394Z,4.40
2023-05-23T10:10:23.066Z,4.50
2023-05-23T10:12:53.133Z,4.97
2023-05-23T10:15:28.010Z,3.73
2023-05-23T10:18:13.982Z,4.40
2023-05-23T10:20:47.217Z,4.17
2023-05-23T10:23:16.353Z,3.97
2023-05-23T10:25:45.782Z,4.30
2023-05-23T10:28:16.100Z,4.37
2023-05-23T10:30:48.003Z,5.03
2023-05-23T10:33:18.015Z,4.70
2023-05-23T10:35:57.797Z,4.77
2023-05-23T10:38:38.177Z,4.83
2023-05-23T10:41:12.792Z,4.73
2023-05-23T10:43:50.050Z,5.07
2023-05-23T10:46:22.477Z,4.80
2023-05-23T10:48:57.434Z,5.60
2023-05-23T10:51:26.857Z,5.17
2023-05-23T10:53:55.887Z,4.80
2023-05-23T10:56:25.991Z,5.37
2023-05-23T10:58:55.544Z,4.73
2023-05-23T11:01:26.281Z,3.80
2023-05-23T11:03:56.244Z,3.70
2023-05-23T11:06:39.676Z,4.13
2023-05-23T11:09:12.186Z,4.13
2023-05-23T11:12:05.310Z,3.67
2023-05-23T11:14:38.292Z,2.90
2023-05-23T11:17:19.189Z,3.33
2023-05-23T11:19:59.778Z,3.77
2023-05-23T11:22:31.565Z,3.30
2023-05-23T11:25:01.349Z,2.83
2023-05-23T11:27:32.290Z,2.47
2023-05-23T11:30:04.024Z,3.20
2023-05-23T11:32:34.286Z,2.50
2023-05-23T11:35:03.645Z,2.50
2023-05-23T11:37:32.400Z,3.37
2023-05-23T11:40:02.161Z,3.20
2023-05-23T11:42:30.617Z,3.50
2023-05-23T11:45:00.447Z,3.50
2023-05-23T11:47:28.838Z,3.70
2023-05-23T11:50:02.239Z,3.93
2023-05-23T11:52:34.493Z,3.70
2023-05-23T11:55:04.088Z,3.00
2023-05-23T11:57:32.849Z,3.67
2023-05-23T12:00:01.585Z,3.57
2023-05-23T12:02:30.145Z,4.23
2023-05-23T12:05:00.304Z,4.20
2023-05-23T12:07:28.953Z,3.10
2023-05-23T12:09:57.787Z,3.87
2023-05-23T12:12:26.384Z,3.30
2023-05-23T12:14:57.554Z,3.17
2023-05-23T12:17:26.333Z,3.53
2023-05-23T12:19:54.985Z,3.13
2023-05-23T12:22:29.735Z,3.90
2023-05-23T12:24:58.390Z,3.80
2023-05-23T12:27:31.627Z,2.70
2023-05-23T12:30:07.809Z,3.70
2023-05-23T12:32:37.156Z,3.93
2023-05-23T12:35:07.222Z,3.20
2023-05-23T12:37:43.962Z,3.50
2023-05-23T12:40:18.249Z,3.40
2023-05-23T12:42:51.902Z,3.27
2023-05-23T12:45:20.654Z,3.03
2023-05-23T12:47:51.361Z,2.50
2023-05-23T12:50:21.628Z,3.50
2023-05-23T12:52:51.701Z,3.27
2023-05-23T12:55:20.359Z,4.23
2023-05-23T12:57:48.964Z,3.27
2023-05-23T13:00:20.729Z,3.30
2023-05-23T13:02:50.440Z,3.20
2023-05-23T13:05:19.270Z,2.80
2023-05-23T13:07:47.825Z,3.03
2023-05-23T13:10:18.036Z,3.10
2023-05-23T13:12:46.579Z,3.30
2023-05-23T13:15:15.187Z,4.40
2023-05-23T13:17:49.524Z,2.77
2023-05-23T13:20:18.751Z,3.63
2023-05-23T13:22:47.366Z,4.13
2023-05-23T13:25:17.460Z,3.73
2023-05-23T13:27:48.190Z,3.30
2023-05-23T13:30:17.884Z,3.57
2023-05-23T13:32:47.853Z,3.40
2023-05-23T13:35:18.009Z,4.20
2023-05-23T13:37:46.783Z,3.33
2023-05-23T13:40:28.810Z,3.23
2023-05-23T13:42:57.683Z,3.73
2023-05-23T13:45:26.780Z,4.13
2023-05-23T13:47:55.384Z,2.80
2023-05-23T13:50:23.967Z,3.03
2023-05-23T13:52:52.512Z,3.30
2023-05-23T13:55:21.323Z,3.67
2023-05-23T13:57:51.266Z,3.37
2023-05-23T14:00:20.049Z,2.90
2023-05-23T14:02:48.503Z,3.30
2023-05-23T14:05:17.764Z,3.50
2023-05-23T14:07:47.582Z,3.73
2023-05-23T14:10:17.550Z,3.40
2023-05-23T14:12:46.194Z,3.57
2023-05-23T14:15:16.070Z,3.43
2023-05-23T14:17:44.688Z,3.27
2023-05-23T14:20:13.801Z,3.30
2023-05-23T14:22:42.358Z,3.13
2023-05-23T14:25:11.462Z,3.40
2023-05-23T14:27:40.321Z,3.50
2023-05-23T14:30:10.963Z,3.27
2023-05-23T14:32:41.263Z,3.10
2023-05-23T14:35:12.278Z,3.77
2023-05-23T14:37:41.242Z,2.90
2023-05-23T14:40:11.342Z,2.90
2023-05-23T14:42:39.953Z,3.20
2023-05-23T14:45:09.224Z,2.80
2023-05-23T14:47:37.977Z,3.10
2023-05-23T14:50:09.597Z,2.93
2023-05-23T14:52:38.278Z,2.63
2023-05-23T14:55:07.806Z,4.00
2023-05-23T14:57:36.276Z,3.03
2023-05-23T15:00:06.030Z,2.87
2023-05-23T15:02:34.768Z,1.90
2023-05-23T15:05:03.419Z,3.13
2023-05-23T15:07:33.435Z,2.67
2023-05-23T15:10:02.484Z,2.80
2023-05-23T15:12:31.208Z,2.50
2023-05-23T15:15:03.783Z,2.80
2023-05-23T15:17:33.408Z,2.27
2023-05-23T15:20:03.915Z,2.60
2023-05-23T15:22:39.836Z,2.47
2023-05-23T15:25:09.887Z,2.40
2023-05-23T15:27:38.618Z,2.57
2023-05-23T15:30:09.793Z,2.50
2023-05-23T15:32:38.727Z,2.30
2023-05-23T15:35:08.716Z,2.97
2023-05-23T15:37:38.841Z,2.70
2023-05-23T15:40:08.422Z,3.13
2023-05-23T15:42:37.293Z,3.50
2023-05-23T15:45:06.874Z,2.53
2023-05-23T15:47:35.618Z,2.53
2023-05-23T15:50:04.704Z,2.63
2023-05-23T15:52:33.295Z,2.40
2023-05-23T15:55:05.650Z,3.40
2023-05-23T15:57:34.270Z,2.70
2023-05-23T16:00:02.760Z,2.97
2023-05-23T16:02:40.339Z,3.03
2023-05-23T16:05:09.318Z,3.10
2023-05-23T16:07:37.914Z,3.57
2023-05-23T16:10:08.717Z,2.03
2023-05-23T16:12:37.178Z,3.00
2023-05-23T16:15:06.852Z,3.03
2023-05-23T16:17:35.471Z,3.73
2023-05-23T16:20:04.489Z,3.50
2023-05-23T16:22:33.153Z,3.07
2023-05-23T16:25:01.755Z,4.90
2023-05-23T16:27:31.712Z,3.20
2023-05-23T16:30:00.217Z,2.83
2023-05-23T16:32:29.297Z,3.87
2023-05-23T16:34:57.685Z,3.70
2023-05-23T16:37:26.300Z,3.50
2023-05-23T16:39:55.089Z,2.90
2023-05-23T16:42:23.564Z,2.57
2023-05-23T16:44:54.345Z,3.73
2023-05-23T16:47:22.862Z,2.70
2023-05-23T16:49:51.341Z,2.67
2023-05-23T16:52:19.814Z,3.70
2023-05-23T16:54:48.311Z,3.93
2023-05-23T16:57:16.864Z,4.03
2023-05-23T16:59:45.430Z,3.40
2023-05-23T17:02:16.130Z,3.30
2023-05-23T17:04:44.898Z,3.13
2023-05-23T17:07:13.533Z,3.40
2023-05-23T17:09:41.952Z,2.70
2023-05-23T17:12:12.461Z,2.90
2023-05-23T17:14:41.080Z,2.60
2023-05-23T17:17:09.692Z,3.00
2023-05-23T17:19:39.747Z,3.10
2023-05-23T17:22:08.422Z,2.97
2023-05-23T17:24:37.810Z,2.93
2023-05-23T17:27:07.004Z,2.90
2023-05-23T17:29:35.591Z,3.43
2023-05-23T17:32:04.297Z,3.10
2023-05-23T17:34:32.938Z,3.40
2023-05-23T17:37:02.884Z,2.30
2023-05-23T17:39:31.421Z,3.60
2023-05-23T17:42:01.058Z,3.63
2023-05-23T17:44:29.608Z,3.10
2023-05-23T17:46:58.637Z,3.90
2023-05-23T17:49:27.295Z,3.10
2023-05-23T17:51:56.813Z,3.20
2023-05-23T17:54:26.681Z,2.87
2023-05-23T17:56:55.158Z,2.60
2023-05-23T17:59:23.845Z,2.53
2023-05-23T18:01:52.480Z,3.17
2023-05-23T18:04:20.985Z,2.30
2023-05-23T18:06:49.669Z,3.20
2023-05-23T18:09:18.601Z,3.10
2023-05-23T18:11:48.605Z,3.50
2023-05-23T18:14:17.043Z,2.83
2023-05-23T18:16:45.612Z,2.90
2023-05-23T18:19:14.345Z,3.30
2023-05-23T18:21:42.971Z,3.07
2023-05-23T18:24:11.966Z,3.27
2023-05-23T18:26:43.162Z,3.70
2023-05-23T18:29:13.302Z,3.60
2023-05-23T18:31:41.901Z,2.53
2023-05-23T18:34:10.504Z,3.30
2023-05-23T18:36:39.375Z,2.63
2023-05-23T18:39:08.551Z,3.23
2023-05-23T18:41:37.244Z,3.37
2023-05-23T18:44:05.995Z,2.80
2023-05-23T18:46:36.475Z,2.80
2023-05-23T18:49:05.079Z,3.60
2023-05-23T18:51:34.212Z,3.70
2023-05-23T18:54:02.932Z,3.80
2023-05-23T18:56:31.651Z,2.90
2023-05-23T18:59:00.405Z,2.60
2023-05-23T19:01:29.059Z,3.10
2023-05-23T19:03:59.038Z,3.47
2023-05-23T19:06:27.983Z,2.90
2023-05-23T19:08:56.525Z,3.40
2023-05-23T19:11:25.408Z,3.77
2023-05-23T19:13:53.943Z,2.93
2023-05-23T19:16:22.476Z,4.03
2023-05-23T19:18:51.621Z,3.17
2023-05-23T19:21:22.075Z,2.60
2023-05-23T19:23:50.738Z,4.23
2023-05-23T19:26:20.477Z,3.07
2023-05-23T19:28:49.354Z,3.30
2023-05-23T19:31:18.114Z,3.20
2023-05-23T19:33:46.786Z,3.03
2023-05-23T19:36:15.312Z,2.60
2023-05-23T19:38:45.335Z,3.10
2023-05-23T19:41:13.804Z,3.60
2023-05-23T19:43:42.321Z,3.80
2023-05-23T19:46:10.936Z,3.40
2023-05-23T19:48:39.536Z,4.50
2023-05-23T19:51:08.075Z,3.67
2023-05-23T19:53:36.617Z,2.97
2023-05-23T19:56:07.083Z,3.60
2023-05-23T19:58:36.320Z,2.83
2023-05-23T20:01:05.205Z,3.17
2023-05-23T20:03:34.204Z,3.10
2023-05-23T20:06:02.779Z,3.23
2023-05-23T20:08:31.374Z,3.07
2023-05-23T20:11:00.508Z,2.60
2023-05-23T20:13:31.091Z,2.97
2023-05-23T20:15:59.777Z,3.27
2023-05-23T20:18:28.322Z,2.47
2023-05-23T20:20:56.910Z,3.00
2023-05-23T20:23:25.430Z,3.00
2023-05-23T20:25:54.048Z,3.03
2023-05-23T20:28:22.571Z,3.10
2023-05-23T20:30:52.723Z,3.27
2023-05-23T20:33:21.981Z,3.07
2023-05-23T20:35:50.569Z,3.10
2023-05-23T20:38:20.086Z,3.40
2023-05-23T20:40:52.115Z,3.43
2023-05-23T20:43:22.377Z,2.90
2023-05-23T20:45:52.305Z,3.77
2023-05-23T20:48:20.832Z,3.27
2023-05-23T20:50:49.460Z,3.20
2023-05-23T20:53:17.952Z,3.20
2023-05-23T20:55:46.361Z,3.17
2023-05-23T20:58:14.962Z,2.70
2023-05-23T21:00:43.697Z,3.43
2023-05-23T21:03:13.793Z,3.27
2023-05-23T21:05:42.829Z,3.00
2023-05-23T21:08:11.593Z,2.40
2023-05-23T21:10:40.183Z,3.27
2023-05-23T21:13:09.091Z,2.90
2023-05-23T21:15:37.588Z,2.93
2023-05-23T21:18:06.246Z,2.23
2023-05-23T21:20:36.312Z,3.10
2023-05-23T21:23:04.822Z,3.07
2023-05-23T21:25:33.415Z,3.17
2023-05-23T21:28:01.895Z,3.10
2023-05-23T21:30:30.429Z,4.23
2023-05-23T21:32:59.239Z,2.70
2023-05-23T21:35:28.028Z,3.43
2023-05-23T21:37:58.085Z,3.13
2023-05-23T21:40:27.742Z,3.83
2023-05-23T21:42:56.232Z,3.30
2023-05-23T21:45:24.667Z,2.93
2023-05-23T21:47:53.104Z,2.60
2023-05-23T21:50:21.789Z,3.40
2023-05-23T21:52:50.483Z,3.13
2023-05-23T21:55:20.333Z,4.13
2023-05-23T21:57:48.832Z,2.47
2023-05-23T22:00:19.808Z,2.03
2023-05-23T22:02:48.512Z,2.97
2023-05-23T22:05:17.214Z,3.27
2023-05-23T22:07:45.911Z,2.30
2023-05-23T22:10:14.727Z,2.67
2023-05-23T22:12:44.480Z,2.90
2023-05-23T22:15:13.199Z,2.30
2023-05-23T22:17:43.608Z,2.83
2023-05-23T22:20:14.669Z,2.90
2023-05-23T22:22:43.519Z,2.70
2023-05-23T22:25:12.257Z,3.17
2023-05-23T22:27:41.099Z,3.00
2023-05-23T22:30:12.244Z,2.23
2023-05-23T22:32:40.916Z,3.13
2023-05-23T22:35:10.310Z,2.30
2023-05-23T22:37:38.940Z,2.93
2023-05-23T22:40:10.000Z,2.27
2023-05-23T22:42:40.025Z,2.30
2023-05-23T22:45:11.505Z,2.20
2023-05-23T22:47:41.643Z,2.93
2023-05-23T22:50:10.997Z,2.60
2023-05-23T22:52:40.434Z,3.07
2023-05-23T22:55:09.850Z,2.83
2023-05-23T22:57:38.387Z,2.57
2023-05-23T23:00:08.249Z,2.70
2023-05-23T23:02:38.148Z,2.77
2023-05-23T23:05:07.495Z,3.07
2023-05-23T23:07:35.990Z,3.40
2023-05-23T23:10:04.564Z,2.90
2023-05-23T23:12:33.018Z,3.60
2023-05-23T23:15:01.572Z,2.57
2023-05-23T23:17:30.074Z,2.97
2023-05-23T23:19:59.930Z,2.93
2023-05-23T23:22:28.532Z,2.77
2023-05-23T23:24:57.024Z,2.90
2023-05-23T23:27:30.808Z,2.70
2023-05-23T23:29:59.496Z,3.17
2023-05-23T23:32:28.016Z,3.37
2023-05-23T23:34:56.597Z,2.03
2023-05-23T23:37:26.372Z,2.40
2023-05-23T23:39:54.872Z,3.23
2023-05-23T23:42:23.366Z,3.23
2023-05-23T23:44:51.727Z,2.43
2023-05-23T23:47:20.149Z,3.87
2023-05-23T23:49:48.618Z,2.77
2023-05-23T23:52:17.678Z,3.40
2023-05-23T23:54:47.573Z,3.00
2023-05-23T23:57:15.969Z,3.20
2023-05-23T23:59:44.735Z,2.90
